Time,TemperatureF,DewpointF,PressureIn,WindDirection,WindDirectionDegrees,WindSpeedMPH,WindSpeedGustMPH,Humidity,HourlyPrecipIn,Conditions,Clouds,dailyrainin,SolarRadiationWatts/m^2,SoftwareType,DateUTC
2013-07-18 00:01:00,88.0,72.0,30.41,SSE,157,2.0,6.0,60,0.00,,,0.03,114.000000,,2013-07-18 00:01:00,
2013-07-18 00:11:00,88.0,72.0,30.41,SSE,157,2.0,6.0,60,0.00,,,0.03,114.000000,,2013-07-18 00:11:00,
2013-07-18 00:43:00,83.0,70.0,30.42,SSE,165,2.0,4.0,66,0.00,,,-99.99,22.000000,,2013-07-18 00:43:00,
2013-07-18 00:52:00,83.0,70.0,30.42,SSE,165,2.0,4.0,66,0.00,,,-99.99,22.000000,,2013-07-18 00:52:00,
2013-07-18 01:01:00,83.0,70.0,30.42,SSE,165,2.0,4.0,66,0.00,,,-99.99,22.000000,,2013-07-18 01:01:00,
2013-07-18 01:11:00,83.0,70.0,30.42,SSE,165,2.0,4.0,66,0.00,,,-99.99,22.000000,,2013-07-18 01:11:00,
2013-07-18 01:43:00,80.0,73.0,30.41,SW,218,5.0,7.0,78,0.00,,,0.03,0.000000,,2013-07-18 01:43:00,
2013-07-18 01:53:00,80.0,73.0,30.41,SW,218,5.0,7.0,78,0.00,,,0.03,0.000000,,2013-07-18 01:53:00,
2013-07-18 02:02:00,80.0,73.0,30.41,SW,218,5.0,7.0,78,0.00,,,0.03,0.000000,,2013-07-18 02:02:00,
2013-07-18 02:11:00,80.0,73.0,30.41,SW,218,5.0,7.0,78,0.00,,,0.03,0.000000,,2013-07-18 02:11:00,
2013-07-18 02:43:00,79.0,71.0,30.43,SW,222,6.0,17.0,77,0.00,,,0.03,0.000000,,2013-07-18 02:43:00,
2013-07-18 02:52:00,79.0,71.0,30.43,SW,222,6.0,17.0,77,0.00,,,0.03,0.000000,,2013-07-18 02:52:00,
2013-07-18 03:01:00,79.0,71.0,30.43,SW,222,6.0,17.0,77,0.00,,,0.03,0.000000,,2013-07-18 03:01:00,
2013-07-18 03:11:00,79.0,71.0,30.43,SW,222,6.0,17.0,77,0.00,,,0.03,0.000000,,2013-07-18 03:11:00,
2013-07-18 03:43:00,79.0,72.0,30.43,South,186,4.0,9.0,80,0.00,,,0.03,0.000000,,2013-07-18 03:43:00,
2013-07-18 03:52:00,79.0,72.0,30.43,South,186,4.0,9.0,80,0.00,,,0.03,0.000000,,2013-07-18 03:52:00,
2013-07-18 04:02:00,79.0,72.0,30.43,South,186,4.0,9.0,80,0.00,,,0.03,0.000000,,2013-07-18 04:02:00,
2013-07-18 04:12:00,79.0,72.0,30.43,South,186,4.0,9.0,80,0.00,,,0.03,0.000000,,2013-07-18 04:12:00,
2013-07-18 04:32:00,80.0,75.0,30.44,SE,134,3.0,7.0,84,0.00,,,0.03,0.000000,,2013-07-18 04:32:00,
2013-07-18 04:43:00,80.0,75.0,30.44,SE,134,3.0,7.0,84,0.00,,,0.03,0.000000,,2013-07-18 04:43:00,
2013-07-18 04:52:00,80.0,75.0,30.44,SE,134,3.0,7.0,84,0.00,,,0.03,0.000000,,2013-07-18 04:52:00,
2013-07-18 05:02:00,80.0,75.0,30.44,SE,134,3.0,7.0,84,0.00,,,0.03,0.000000,,2013-07-18 05:02:00,
2013-07-18 05:11:00,80.0,75.0,30.44,SE,134,3.0,7.0,84,0.00,,,0.03,0.000000,,2013-07-18 05:11:00,
2013-07-18 05:43:00,79.0,74.0,30.43,SSW,195,5.0,10.0,86,0.00,,,0.03,0.000000,,2013-07-18 05:43:00,
2013-07-18 05:52:00,79.0,74.0,30.43,SSW,195,5.0,10.0,86,0.00,,,0.03,0.000000,,2013-07-18 05:52:00,
2013-07-18 06:01:00,79.0,74.0,30.43,SSW,195,5.0,10.0,86,0.00,,,0.03,0.000000,,2013-07-18 06:01:00,
2013-07-18 06:12:00,79.0,74.0,30.43,SSW,195,5.0,10.0,86,0.00,,,0.03,0.000000,,2013-07-18 06:12:00,
2013-07-18 06:32:00,77.0,75.0,30.42,SSW,206,4.0,-999.0,93,0.00,,,0.03,0.000000,,2013-07-18 06:32:00,
2013-07-18 06:43:00,77.0,75.0,30.42,SSW,206,4.0,-999.0,93,0.00,,,0.03,0.000000,,2013-07-18 06:43:00,
2013-07-18 06:52:00,77.0,75.0,30.42,SSW,206,4.0,-999.0,93,0.00,,,0.03,0.000000,,2013-07-18 06:52:00,
2013-07-18 07:01:00,77.0,75.0,30.42,SSW,206,4.0,-999.0,93,0.00,,,0.03,0.000000,,2013-07-18 07:01:00,
2013-07-18 07:12:00,77.0,75.0,30.42,SSW,206,4.0,-999.0,93,0.00,,,0.03,0.000000,,2013-07-18 07:12:00,
2013-07-18 10:01:00,76.0,76.0,30.40,SW,236,4.0,6.0,100,-99.99,,,0.03,0.000000,,2013-07-18 10:01:00,
2013-07-18 10:11:00,76.0,76.0,30.40,SW,236,4.0,6.0,100,-99.99,,,0.03,0.000000,,2013-07-18 10:11:00,
2013-07-18 11:52:00,75.0,75.0,30.42,WSW,251,3.0,6.0,99,-99.99,,,0.00,19.000000,,2013-07-18 11:52:00,
2013-07-18 12:02:00,75.0,75.0,30.42,WSW,251,3.0,6.0,99,-99.99,,,0.00,19.000000,,2013-07-18 12:02:00,
2013-07-18 12:11:00,75.0,75.0,30.42,WSW,251,3.0,6.0,99,-99.99,,,0.00,19.000000,,2013-07-18 12:11:00,
2013-07-18 12:42:00,76.0,76.0,30.43,NNE,33,4.0,6.0,99,0.00,,,0.00,56.000000,,2013-07-18 12:42:00,
2013-07-18 12:52:00,76.0,76.0,30.43,NNE,33,4.0,6.0,99,0.00,,,0.00,56.000000,,2013-07-18 12:52:00,
2013-07-18 13:01:00,76.0,76.0,30.43,NNE,33,4.0,6.0,99,0.00,,,0.00,56.000000,,2013-07-18 13:01:00,
2013-07-18 13:11:00,76.0,76.0,30.43,NNE,33,4.0,6.0,99,0.00,,,0.00,56.000000,,2013-07-18 13:11:00,
2013-07-18 13:43:00,79.0,76.0,30.43,WSW,247,2.0,6.0,91,0.00,,,0.00,66.000000,,2013-07-18 13:43:00,
2013-07-18 13:53:00,79.0,76.0,30.43,WSW,247,2.0,6.0,91,0.00,,,0.00,66.000000,,2013-07-18 13:53:00,
2013-07-18 14:02:00,79.0,76.0,30.43,WSW,247,2.0,6.0,91,0.00,,,0.00,66.000000,,2013-07-18 14:02:00,
2013-07-18 14:12:00,79.0,76.0,30.43,WSW,247,2.0,6.0,91,0.00,,,0.00,66.000000,,2013-07-18 14:12:00,
2013-07-18 14:43:00,84.0,76.0,30.42,SW,216,3.0,6.0,76,0.00,,,0.00,274.000000,,2013-07-18 14:43:00,
2013-07-18 14:53:00,84.0,76.0,30.42,SW,216,3.0,6.0,76,0.00,,,0.00,274.000000,,2013-07-18 14:53:00,
2013-07-18 15:01:00,84.0,76.0,30.42,SW,216,3.0,6.0,76,0.00,,,0.00,274.000000,,2013-07-18 15:01:00,
2013-07-18 15:11:00,84.0,76.0,30.42,SW,216,3.0,6.0,76,0.00,,,0.00,274.000000,,2013-07-18 15:11:00,
2013-07-18 15:43:00,92.0,75.0,30.43,West,268,3.0,9.0,58,0.00,,,0.00,767.000000,,2013-07-18 15:43:00,
2013-07-18 15:53:00,92.0,75.0,30.43,West,268,3.0,9.0,58,0.00,,,0.00,767.000000,,2013-07-18 15:53:00,
2013-07-18 16:01:00,92.0,75.0,30.43,West,268,3.0,9.0,58,0.00,,,0.00,767.000000,,2013-07-18 16:01:00,
2013-07-18 16:12:00,92.0,75.0,30.43,West,268,3.0,9.0,58,0.00,,,0.00,767.000000,,2013-07-18 16:12:00,
2013-07-18 16:42:00,95.0,73.0,30.43,SSW,201,3.0,8.0,49,0.00,,,-99.99,954.000000,,2013-07-18 16:42:00,
2013-07-18 18:43:00,94.0,75.0,30.40,SW,233,5.0,12.0,54,-99.99,,,0.00,710.000000,,2013-07-18 18:43:00,
2013-07-18 18:52:00,94.0,75.0,30.40,SW,233,5.0,12.0,54,-99.99,,,0.00,710.000000,,2013-07-18 18:52:00,
2013-07-18 19:02:00,94.0,75.0,30.40,SW,233,5.0,12.0,54,-99.99,,,0.00,710.000000,,2013-07-18 19:02:00,
2013-07-18 19:11:00,94.0,75.0,30.40,SW,233,5.0,12.0,54,-99.99,,,0.00,710.000000,,2013-07-18 19:11:00,
2013-07-18 19:43:00,92.0,70.0,30.39,SW,229,8.0,17.0,49,0.00,,,0.00,948.000000,,2013-07-18 19:43:00,
2013-07-18 19:53:00,92.0,70.0,30.39,SW,229,8.0,17.0,49,0.00,,,0.00,948.000000,,2013-07-18 19:53:00,
2013-07-18 20:02:00,92.0,70.0,30.39,SW,229,8.0,17.0,49,0.00,,,0.00,948.000000,,2013-07-18 20:02:00,
2013-07-18 20:11:00,92.0,70.0,30.39,SW,229,8.0,17.0,49,0.00,,,0.00,948.000000,,2013-07-18 20:11:00,
2013-07-18 21:11:00,75.0,74.0,30.39,ENE,67,5.0,18.0,96,0.20,,,0.20,62.000000,,2013-07-18 21:11:00,
2013-07-18 21:43:00,78.0,78.0,30.35,West,265,5.0,12.0,99,0.07,,,0.27,88.000000,,2013-07-18 21:43:00,
2013-07-18 21:52:00,78.0,78.0,30.35,West,265,5.0,12.0,99,0.07,,,0.27,88.000000,,2013-07-18 21:52:00,
2013-07-18 22:01:00,78.0,78.0,30.35,West,265,5.0,12.0,99,0.07,,,0.27,88.000000,,2013-07-18 22:01:00,
2013-07-18 22:11:00,78.0,78.0,30.35,West,265,5.0,12.0,99,0.07,,,0.27,88.000000,,2013-07-18 22:11:00,
2013-07-18 22:32:00,82.0,78.0,30.34,SW,234,3.0,7.0,88,0.00,,,0.27,147.000000,,2013-07-18 22:32:00,
2013-07-18 22:43:00,82.0,78.0,30.34,SW,234,3.0,7.0,88,0.00,,,0.27,147.000000,,2013-07-18 22:43:00,
2013-07-18 22:53:00,82.0,78.0,30.34,SW,234,3.0,7.0,88,0.00,,,0.27,147.000000,,2013-07-18 22:53:00,
2013-07-18 23:02:00,82.0,78.0,30.34,SW,234,3.0,7.0,88,0.00,,,0.27,147.000000,,2013-07-18 23:02:00,
2013-07-18 23:11:00,82.0,78.0,30.34,SW,234,3.0,7.0,88,0.00,,,0.27,147.000000,,2013-07-18 23:11:00,
2013-07-18 23:42:00,82.0,76.0,30.35,SSW,212,2.0,7.0,82,0.00,,,0.27,119.000000,,2013-07-18 23:42:00,
2013-07-18 23:52:00,82.0,76.0,30.35,SSW,212,2.0,7.0,82,0.00,,,0.27,119.000000,,2013-07-18 23:52:00,